Latest Weather Observations for Cobar

IDN60801

Issued at 12:22 pm EST Sunday 23 September 2018 (issued every 10 minutes, with the page automatically refreshed every 10 minutes)

About weather observations | Map of weather stations | Latest weather observations for NSW | Other Formats
Station Details ID: 048027 Name: COBAR MO Lat: -31.48 Lon: 145.83 Height: 260.0 m
Data from the previous 72 hours. | See also: Recent months at Cobar
Date/Time
EST
Temp
°C
App
Temp
°C
Dew
Point
°C
Rel
Hum
%
Delta-T
°C
Wind Press
QNH
hPa
Press
MSL
hPa
Rain since
9am
mm
Dir  Spd
km/h
Gust
km/h
Spd
kts
Gust
kts
23/12:00pm 26.2 20.2 -1.6 16 12.6 SSW 20 32 11 17 1025.9 1025.6 0.0
23/11:30am 26.2 20.5 -0.8 17 12.5 SW 19 32 10 17 1026.2 1025.9 0.0
23/11:00am 25.3 20.4 -0.7 18 11.9 SSW 15 28 8 15 1026.7 1026.4 0.0
23/10:30am 23.9 19.0 -0.4 20 11.1 WSW 15 26 8 14 1026.9 1026.6 0.0
23/10:00am 24.4 19.6 0.0 20 11.3 SW 15 20 8 11 1027.0 1026.7 0.0
23/09:30am 24.0 20.0 0.4 21 11.0 SW 11 20 6 11 1027.0 1026.7 0.0
23/09:00am 23.3 20.0 -0.9 20 10.9 NW 6 7 3 4 1027.0 1026.7 0.0
23/08:30am 22.2 18.7 -1.1 21 10.4 NNW 7 9 4 5 1027.0 1026.7 0.0
23/08:00am 20.4 16.9 -1.4 23 9.5 N 7 11 4 6 1026.8 1026.5 0.0
23/07:30am 18.6 14.7 -1.8 25 8.7 NNE 9 11 5 6 1026.7 1026.4 0.0
23/07:00am 16.1 12.2 -1.5 30 7.3 NE 9 11 5 6 1026.4 1026.1 0.0
23/06:30am 13.7 9.4 -1.5 35 6.2 NE 11 11 6 6 1026.1 1025.8 0.0
23/06:00am 13.2 9.3 -1.5 36 6.0 NE 9 11 5 6 1025.8 1025.5 0.0
23/05:30am 13.5 9.6 -1.3 36 6.1 NE 9 11 5 6 1025.5 1025.2 0.0
23/05:00am 13.6 9.7 -1.6 35 6.2 NE 9 13 5 7 1025.3 1025.0 0.0
23/04:30am 13.5 9.2 -1.3 36 6.1 ENE 11 13 6 7 1025.1 1024.8 0.0
23/04:00am 13.5 9.6 -1.3 36 6.0 ENE 9 11 5 6 1025.0 1024.7 0.0
23/03:30am 13.8 10.3 -1.0 36 6.1 ENE 7 9 4 5 1025.1 1024.8 0.0
23/03:00am 13.7 10.2 -1.5 35 6.2 ENE 7 9 4 5 1025.1 1024.8 0.0
23/02:30am 14.4 10.2 -1.2 34 6.5 E 11 11 6 6 1025.2 1024.9 0.0
23/02:00am 14.0 10.0 -2.4 32 6.6 ESE 9 9 5 5 1025.6 1025.3 0.0
23/01:30am 14.2 10.5 -3.1 30 6.9 SSE 7 9 4 5 1026.0 1025.7 0.0
23/01:00am 15.4 11.8 -2.1 30 7.1 S 7 9 4 5 1026.1 1025.8 0.0
23/12:30am 15.4 11.7 -3.0 28 7.4 SSW 7 9 4 5 1026.4 1026.1 0.0
23/12:00am 15.7 12.0 -3.2 27 7.6 SSW 7 7 4 4 1026.4 1026.1 0.0
 
Date/Time
EST
Temp
°C
App
Temp
°C
Dew
Point
°C
Rel
Hum
%
Delta-T
°C
Wind Press
QNH
hPa
Press
MSL
hPa
Rain since
9am
mm
Dir  Spd
km/h
Gust
km/h
Spd
kts
Gust
kts
22/11:30pm 16.6 12.9 -3.0 26 8.0 SW 7 9 4 5 1026.4 1026.1 0.0
22/11:00pm 17.2 14.9 -2.4 26 8.1 CALM 0 0 0 0 1026.4 1026.1 0.0
22/10:30pm 16.9 14.6 -2.7 26 8.1 CALM 0 0 0 0 1026.4 1026.1 0.0
22/10:00pm 17.1 14.7 -3.1 25 8.2 CALM 0 0 0 0 1026.5 1026.2 0.0
22/09:30pm 16.7 14.3 -2.9 26 8.0 CALM 0 0 0 0 1026.6 1026.3 0.0
22/09:00pm 16.3 13.8 -3.7 25 8.0 CALM 0 0 0 0 1026.6 1026.3 0.0
22/08:30pm 17.6 14.4 -3.2 24 8.5 SW 4 6 2 3 1026.6 1026.3 0.0
22/08:00pm 17.8 14.2 -3.6 23 8.7 SW 6 6 3 3 1026.3 1026.0 0.0
22/07:30pm 18.6 14.9 -4.1 21 9.2 SW 6 6 3 3 1026.1 1025.8 0.0
22/07:00pm 19.2 15.6 -3.6 21 9.4 SW 6 7 3 4 1025.7 1025.4 0.0
22/06:30pm 20.7 17.0 -4.4 18 10.4 SW 6 7 3 4 1025.4 1025.1 0.0
22/06:00pm 22.4 18.6 -3.8 17 11.1 S 7 17 4 9 1025.1 1024.8 0.0
22/05:30pm 23.2 18.5 -4.8 15 11.7 SW 11 17 6 9 1024.9 1024.5 0.0
22/05:00pm 23.9 19.7 -4.3 15 12.0 SW 9 17 5 9 1024.6 1024.2 0.0
22/04:30pm 23.7 19.1 -4.4 15 11.9 S 11 17 6 9 1024.6 1024.2 0.0
22/04:00pm 23.7 18.3 -4.4 15 11.9 SW 15 22 8 12 1024.8 1024.4 0.0
22/03:30pm 23.5 18.9 -3.7 16 11.7 SW 11 17 6 9 1024.9 1024.5 0.0
22/03:00pm 23.0 18.9 -3.3 17 11.3 SSW 9 17 5 9 1025.2 1024.9 0.0
22/02:30pm 23.6 18.7 -3.7 16 11.7 SW 13 26 7 14 1025.6 1025.3 0.0
22/02:00pm 23.6 19.0 -3.7 16 11.7 W 11 19 6 10 1025.8 1025.5 0.0
22/01:30pm 23.2 18.6 -4.0 16 11.6 W 11 20 6 11 1026.2 1025.9 0.0
22/01:00pm 23.4 19.2 -3.8 16 11.6 W 9 17 5 9 1026.8 1026.5 0.0
22/12:30pm 23.9 19.4 -3.4 16 11.8 SSW 11 19 6 10 1027.3 1027.0 0.0
22/12:00pm 23.1 17.5 -3.3 17 11.3 SW 17 24 9 13 1027.7 1027.4 0.0
22/11:30am 23.4 19.3 -3.0 17 11.5 WSW 9 17 5 9 1028.1 1027.8 0.0
22/11:00am 23.2 18.7 -3.2 17 11.3 NW 11 20 6 11 1028.8 1028.5 0.0
22/10:30am 21.8 18.1 -2.8 19 10.6 NNE 7 15 4 8 1029.2 1028.9 0.0
22/10:00am 21.8 18.2 -2.1 20 10.4 W 7 13 4 7 1029.3 1029.0 0.0
22/09:30am 20.5 16.8 -2.5 21 9.8 NNE 7 11 4 6 1029.4 1029.1 0.0
22/09:00am 20.1 16.5 -2.3 22 9.5 ESE 7 9 4 5 1029.2 1028.9 0.0
22/08:30am 19.5 15.5 -2.2 23 9.3 ENE 9 11 5 6 1029.1 1028.8 0.0
22/08:00am 19.0 15.0 -2.0 24 8.9 E 9 15 5 8 1028.7 1028.4 0.0
22/07:30am 15.9 12.5 -2.1 29 7.4 ESE 6 9 3 5 1028.4 1028.1 0.0
22/07:00am 12.2 8.1 -3.2 34 5.9 E 9 11 5 6 1028.0 1027.7 0.0
22/06:30am 11.7 7.5 -3.6 34 5.9 E 9 11 5 6 1027.7 1027.4 0.0
22/06:00am 12.1 8.0 -3.3 34 5.9 E 9 11 5 6 1027.2 1026.9 0.0
22/05:30am 11.1 7.3 -3.4 36 5.5 E 7 9 4 5 1027.0 1026.7 0.0
22/05:00am 11.0 7.4 -3.8 35 5.5 SSE 6 9 3 5 1026.8 1026.5 0.0
22/04:30am 11.8 8.0 -3.5 34 5.9 SSE 7 9 4 5 1026.4 1026.1 0.0
22/04:00am 12.8 9.0 -3.9 31 6.4 ESE 7 9 4 5 1026.3 1026.0 0.0
22/03:30am 13.1 9.3 -3.6 31 6.5 ESE 7 9 4 5 1026.2 1025.9 0.0
22/03:00am 12.6 8.8 -4.1 31 6.3 ESE 7 9 4 5 1026.3 1026.0 0.0
22/02:30am 13.3 9.2 -3.4 31 6.5 ESE 9 11 5 6 1026.4 1026.1 0.0
22/02:00am 12.9 8.7 -3.8 31 6.4 E 9 11 5 6 1026.6 1026.3 0.0
22/01:30am 12.9 8.7 -4.2 30 6.5 ESE 9 11 5 6 1026.8 1026.5 0.0
22/01:00am 12.8 8.5 -4.8 29 6.6 SE 9 11 5 6 1026.9 1026.6 0.0
22/12:30am 13.6 9.4 -4.1 29 6.8 SSE 9 9 5 5 1027.1 1026.8 0.0
22/12:00am 13.6 9.3 -4.5 28 6.9 S 9 11 5 6 1027.3 1027.0 0.0
 
Date/Time
EST
Temp
°C
App
Temp
°C
Dew
Point
°C
Rel
Hum
%
Delta-T
°C
Wind Press
QNH
hPa
Press
MSL
hPa
Rain since
9am
mm
Dir  Spd
km/h
Gust
km/h
Spd
kts
Gust
kts
21/11:30pm 14.6 9.9 -4.7 26 7.4 E 11 13 6 7 1027.1 1026.8 0.0
21/11:00pm 15.1 10.1 -4.2 26 7.5 ENE 13 15 7 8 1027.2 1026.9 0.0
21/10:30pm 14.5 10.2 -4.7 26 7.4 E 9 11 5 6 1027.2 1026.9 0.0
21/10:00pm 14.8 10.5 -5.0 25 7.5 ESE 9 9 5 5 1027.0 1026.7 0.0
21/09:30pm 15.1 10.7 -5.9 23 7.9 SE 9 11 5 6 1026.9 1026.6 0.0
21/09:00pm 17.2 12.9 -4.7 22 8.6 SSE 9 11 5 6 1026.9 1026.6 0.0
21/08:30pm 17.5 13.6 -5.0 21 8.9 SSE 7 11 4 6 1026.7 1026.4 0.0
21/08:00pm 18.7 14.7 -5.4 19 9.5 SSE 7 9 4 5 1026.6 1026.3 0.0
21/07:30pm 19.1 15.1 -5.7 18 9.8 SSE 7 9 4 5 1026.3 1026.0 0.0
21/07:00pm 19.3 15.3 -5.6 18 9.8 S 7 9 4 5 1026.1 1025.8 0.0
21/06:30pm 19.9 16.1 -5.8 17 10.2 SSW 6 7 3 4 1026.0 1025.7 0.0
21/06:00pm 21.1 17.3 -5.7 16 10.8 SE 6 9 3 5 1025.9 1025.6 0.0
21/05:30pm 22.1 17.2 -6.6 14 11.5 SSW 11 17 6 9 1025.7 1025.4 0.0
21/05:00pm 22.6 17.3 -7.2 13 11.8 SW 13 20 7 11 1025.4 1025.1 0.0
21/04:30pm 22.9 18.7 -8.0 12 12.1 ESE 7 9 4 5 1025.3 1025.0 0.0
21/04:00pm 23.1 18.9 -7.8 12 12.2 WSW 7 13 4 7 1025.0 1024.7 0.0
21/03:30pm 22.6 18.1 -7.2 13 11.9 ENE 9 15 5 8 1025.1 1024.8 0.0
21/03:00pm 22.8 17.9 -7.0 13 11.9 S 11 17 6 9 1025.1 1024.8 0.0
21/02:30pm 22.0 17.1 -7.6 13 11.6 SE 11 17 6 9 1025.6 1025.3 0.0
21/02:00pm 22.2 17.3 -7.5 13 11.6 NW 11 15 6 8 1026.0 1025.7 0.0
21/01:30pm 22.2 17.6 -7.5 13 11.7 SW 9 15 5 8 1026.4 1026.1 0.0
21/01:00pm 21.4 17.0 -6.3 15 11.0 S 9 20 5 11 1026.7 1026.4 0.0
21/12:30pm 20.9 17.0 -5.0 17 10.6 WSW 7 13 4 7 1027.0 1026.7 0.0
21/12:00pm 20.6 15.9 -5.3 17 10.4 S 11 20 6 11 1027.6 1027.3 0.0
21/11:30am 19.4 15.5 -4.8 19 9.8 SE 7 17 4 9 1027.9 1027.6 0.0
21/11:00am 18.8 14.9 -4.6 20 9.4 NE 7 13 4 7 1028.4 1028.1 0.0
21/10:30am 19.0 14.7 -4.4 20 9.5 ESE 9 15 5 8 1028.4 1028.1 0.0
21/10:00am 18.3 14.1 -3.8 22 9.0 ESE 9 17 5 9 1028.8 1028.5 0.0
21/09:30am 17.6 13.5 -3.2 24 8.5 SE 9 17 5 9 1028.8 1028.5 0.0
21/09:00am 17.0 11.8 -3.1 25 8.2 ESE 15 20 8 11 1028.7 1028.4 0.0
21/08:30am 16.0 11.2 -2.5 28 7.6 ESE 13 17 7 9 1028.6 1028.3 0.0
21/08:00am 14.5 10.1 -2.4 31 6.8 ESE 11 17 6 9 1028.4 1028.1 0.0
21/07:30am 12.2 7.0 -2.8 35 5.9 ESE 15 17 8 9 1027.8 1027.5 0.0
21/07:00am 9.6 5.5 -2.7 42 4.7 ESE 9 11 5 6 1027.4 1027.1 0.0
21/06:30am 8.0 3.6 -2.6 47 4.0 ESE 11 11 6 6 1026.9 1026.6 0.0
21/06:00am 7.9 3.9 -2.4 48 3.9 SE 9 9 5 5 1026.5 1026.2 0.0
21/05:30am 7.8 3.8 -2.2 49 3.8 SE 9 11 5 6 1026.1 1025.8 0.0
21/05:00am 7.9 3.9 -2.4 48 3.9 SE 9 11 5 6 1025.9 1025.6 0.0
21/04:30am 8.7 5.0 -2.6 45 4.3 SSE 7 9 4 5 1025.8 1025.5 0.0
21/04:00am 9.1 5.1 -2.2 45 4.3 SSE 9 11 5 6 1025.6 1025.3 0.0
21/03:30am 9.3 5.7 -2.3 44 4.5 SSE 7 9 4 5 1025.4 1025.1 0.0
21/03:00am 9.4 5.7 -2.5 43 4.5 S 7 11 4 6 1025.4 1025.1 0.0
21/02:30am 10.3 6.3 -2.4 41 4.9 SSE 9 11 5 6 1025.4 1025.1 0.0
21/02:00am 10.5 6.5 -2.2 41 4.9 SSE 9 11 5 6 1025.7 1025.4 0.0
21/01:30am 10.1 6.4 -2.5 41 4.9 SSE 7 9 4 5 1025.9 1025.6 0.0
21/01:00am 10.4 6.4 -2.6 40 5.0 S 9 11 5 6 1026.0 1025.7 0.0
21/12:30am 10.3 6.2 -3.0 39 5.1 S 9 11 5 6 1026.0 1025.7 0.0
21/12:00am 10.8 6.7 -2.9 38 5.2 S 9 9 5 5 1026.1 1025.8 0.0
 
Date/Time
EST
Temp
°C
App
Temp
°C
Dew
Point
°C
Rel
Hum
%
Delta-T
°C
Wind Press
QNH
hPa
Press
MSL
hPa
Rain since
9am
mm
Dir  Spd
km/h
Gust
km/h
Spd
kts
Gust
kts
20/11:30pm 10.9 7.2 -3.2 37 5.4 SSW 7 9 4 5 1026.1 1025.8 0.0
20/11:00pm 10.8 7.0 -3.7 36 5.4 SSW 7 11 4 6 1026.2 1025.9 0.0
20/10:30pm 11.0 7.2 -3.8 35 5.6 SSW 7 9 4 5 1026.0 1025.7 0.0
20/10:00pm 11.7 7.9 -3.6 34 5.8 SSW 7 11 4 6 1025.8 1025.5 0.0
20/09:30pm 12.0 8.1 -4.2 32 6.1 SSW 7 9 4 5 1025.6 1025.3 0.0
20/09:00pm 12.5 8.3 -4.1 31 6.3 SSW 9 11 5 6 1025.3 1025.0 0.0
20/08:30pm 12.8 8.5 -4.8 29 6.6 SW 9 11 5 6 1024.8 1024.4 0.0
20/08:00pm 13.2 8.9 -4.9 28 6.8 SW 9 11 5 6 1024.4 1024.0 0.0
20/07:30pm 14.2 10.3 -5.0 26 7.3 SSW 7 9 4 5 1023.9 1023.6 0.0
20/07:00pm 15.2 11.2 -5.2 24 7.8 SSW 7 9 4 5 1023.3 1023.0 0.0
20/06:30pm 16.1 11.7 -6.2 21 8.5 SW 9 15 5 8 1022.8 1022.5 0.0
20/06:00pm 17.5 11.9 -6.3 19 9.1 SSW 15 24 8 13 1022.3 1022.0 0.0
20/05:30pm 18.4 12.5 -5.6 19 9.4 SW 17 26 9 14 1022.0 1021.7 0.0
20/05:00pm 18.8 13.6 -6.7 17 9.8 SW 13 20 7 11 1021.7 1021.4 0.0
20/04:30pm 19.0 13.2 -5.1 19 9.6 WSW 17 26 9 14 1021.4 1021.0 0.0
20/04:00pm 19.2 13.1 -4.3 20 9.5 WSW 19 28 10 15 1021.3 1020.9 0.0
20/03:30pm 19.1 12.9 -4.4 20 9.6 SW 19 28 10 15 1021.2 1020.8 0.0
20/03:00pm 19.3 13.2 -4.2 20 9.6 WSW 19 26 10 14 1021.2 1020.8 0.0
20/02:30pm 18.9 13.1 -4.5 20 9.5 SW 17 32 9 17 1021.2 1020.8 0.0
20/02:00pm 18.5 12.2 -3.6 22 9.0 WSW 20 32 11 17 1021.3 1020.9 0.0
20/01:30pm 18.1 11.9 -3.3 23 8.8 SSW 20 30 11 16 1021.6 1021.2 0.0
20/01:00pm 17.4 11.1 -3.9 23 8.6 SSW 20 32 11 17 1021.9 1021.6 0.0
20/12:30pm 18.3 12.2 -3.8 22 9.0 SW 19 32 10 17 1022.3 1022.0 0.0

Other Formats:

Comma delimited format used in spreadsheet applications
http://www.bom.gov.au/fwo/IDN60801/IDN60801.94711.axf

JavaScript Object Notation format (JSON) in row-major order
http://www.bom.gov.au/fwo/IDN60801/IDN60801.94711.json